sensor_id;sensor_type;location;lat;lon;timestamp;temperature;humidity
41457;DHT22;27197;51.752;5.220;2023-07-09T01:20:47;26.10;67.70
41457;DHT22;27197;51.752;5.220;2023-07-09T01:23:15;26.10;67.90
41457;DHT22;27197;51.752;5.220;2023-07-09T01:25:46;26.00;68.10
41457;DHT22;27197;51.752;5.220;2023-07-09T01:28:15;26.00;67.90
41457;DHT22;27197;51.752;5.220;2023-07-09T01:30:44;26.00;67.90
41457;DHT22;27197;51.752;5.220;2023-07-09T01:33:11;26.00;68.00
41457;DHT22;27197;51.752;5.220;2023-07-09T01:35:40;26.00;68.10
41457;DHT22;27197;51.752;5.220;2023-07-09T01:38:09;26.00;68.00
41457;DHT22;27197;51.752;5.220;2023-07-09T01:40:36;26.00;68.00
41457;DHT22;27197;51.752;5.220;2023-07-09T01:43:06;26.00;67.90
41457;DHT22;27197;51.752;5.220;2023-07-09T01:45:36;26.00;68.00
41457;DHT22;27197;51.752;5.220;2023-07-09T01:48:04;26.00;68.20
41457;DHT22;27197;51.752;5.220;2023-07-09T01:50:32;26.00;68.20
41457;DHT22;27197;51.752;5.220;2023-07-09T01:53:00;25.90;68.20
41457;DHT22;27197;51.752;5.220;2023-07-09T01:55:29;25.90;68.20
41457;DHT22;27197;51.752;5.220;2023-07-09T01:57:56;25.90;68.20
41457;DHT22;27197;51.752;5.220;2023-07-09T02:00:24;25.90;68.30
41457;DHT22;27197;51.752;5.220;2023-07-09T02:02:53;25.90;68.50
41457;DHT22;27197;51.752;5.220;2023-07-09T02:05:21;25.90;68.50
41457;DHT22;27197;51.752;5.220;2023-07-09T02:07:49;25.90;68.60
41457;DHT22;27197;51.752;5.220;2023-07-09T02:10:16;25.90;68.60
41457;DHT22;27197;51.752;5.220;2023-07-09T02:12:45;26.00;68.20
41457;DHT22;27197;51.752;5.220;2023-07-09T02:15:14;26.00;68.00
41457;DHT22;27197;51.752;5.220;2023-07-09T02:17:42;26.00;68.00
41457;DHT22;27197;51.752;5.220;2023-07-09T02:20:09;26.10;68.00
41457;DHT22;27197;51.752;5.220;2023-07-09T02:22:38;26.10;67.70
41457;DHT22;27197;51.752;5.220;2023-07-09T02:25:07;26.00;67.60
41457;DHT22;27197;51.752;5.220;2023-07-09T02:27:36;26.00;67.80
41457;DHT22;27197;51.752;5.220;2023-07-09T02:30:04;26.00;67.80
41457;DHT22;27197;51.752;5.220;2023-07-09T02:32:32;25.90;68.00
41457;DHT22;27197;51.752;5.220;2023-07-09T02:35:00;25.90;67.60
41457;DHT22;27197;51.752;5.220;2023-07-09T02:37:28;26.00;67.60
41457;DHT22;27197;51.752;5.220;2023-07-09T02:39:55;26.00;67.70
41457;DHT22;27197;51.752;5.220;2023-07-09T02:42:24;25.90;68.50
41457;DHT22;27197;51.752;5.220;2023-07-09T02:44:52;25.90;68.00
41457;DHT22;27197;51.752;5.220;2023-07-09T02:47:19;25.90;68.00
41457;DHT22;27197;51.752;5.220;2023-07-09T02:49:47;25.80;68.00
41457;DHT22;27197;51.752;5.220;2023-07-09T02:52:14;25.80;67.80
41457;DHT22;27197;51.752;5.220;2023-07-09T02:54:42;25.80;68.00
41457;DHT22;27197;51.752;5.220;2023-07-09T02:57:12;25.80;68.40
41457;DHT22;27197;51.752;5.220;2023-07-09T02:59:40;25.80;68.40
41457;DHT22;27197;51.752;5.220;2023-07-09T03:02:07;25.80;68.40
41457;DHT22;27197;51.752;5.220;2023-07-09T03:04:35;25.70;67.80
41457;DHT22;27197;51.752;5.220;2023-07-09T03:07:03;25.80;68.00
41457;DHT22;27197;51.752;5.220;2023-07-09T03:09:30;25.80;67.80
41457;DHT22;27197;51.752;5.220;2023-07-09T03:11:57;25.70;68.00
41457;DHT22;27197;51.752;5.220;2023-07-09T03:14:25;25.70;67.60
41457;DHT22;27197;51.752;5.220;2023-07-09T03:16:53;25.70;68.00
41457;DHT22;27197;51.752;5.220;2023-07-09T03:19:20;25.70;68.10
41457;DHT22;27197;51.752;5.220;2023-07-09T03:21:48;25.60;68.20
41457;DHT22;27197;51.752;5.220;2023-07-09T03:24:16;25.70;68.20
41457;DHT22;27197;51.752;5.220;2023-07-09T03:26:48;25.70;68.20
41457;DHT22;27197;51.752;5.220;2023-07-09T03:29:16;25.60;68.60
41457;DHT22;27197;51.752;5.220;2023-07-09T03:31:46;25.70;68.40
41457;DHT22;27197;51.752;5.220;2023-07-09T03:34:15;25.70;68.70
41457;DHT22;27197;51.752;5.220;2023-07-09T03:36:43;25.70;68.50
41457;DHT22;27197;51.752;5.220;2023-07-09T03:39:11;25.60;68.70
41457;DHT22;27197;51.752;5.220;2023-07-09T03:41:40;25.60;68.90
41457;DHT22;27197;51.752;5.220;2023-07-09T03:44:10;25.60;69.00
41457;DHT22;27197;51.752;5.220;2023-07-09T03:46:38;25.60;69.00
41457;DHT22;27197;51.752;5.220;2023-07-09T03:49:05;25.60;69.00
41457;DHT22;27197;51.752;5.220;2023-07-09T03:51:33;25.70;69.00
41457;DHT22;27197;51.752;5.220;2023-07-09T03:54:00;25.60;68.80
41457;DHT22;27197;51.752;5.220;2023-07-09T03:56:28;25.60;68.80
41457;DHT22;27197;51.752;5.220;2023-07-09T03:58:55;25.60;68.80
41457;DHT22;27197;51.752;5.220;2023-07-09T04:01:23;25.70;69.00
41457;DHT22;27197;51.752;5.220;2023-07-09T04:03:53;25.60;68.90
41457;DHT22;27197;51.752;5.220;2023-07-09T04:06:20;25.50;69.10
41457;DHT22;27197;51.752;5.220;2023-07-09T04:08:48;25.50;69.40
41457;DHT22;27197;51.752;5.220;2023-07-09T04:11:15;25.50;69.40
41457;DHT22;27197;51.752;5.220;2023-07-09T04:13:43;25.50;69.30
41457;DHT22;27197;51.752;5.220;2023-07-09T04:16:11;25.60;69.20
41457;DHT22;27197;51.752;5.220;2023-07-09T04:18:39;25.60;69.20
41457;DHT22;27197;51.752;5.220;2023-07-09T04:21:06;25.70;69.30
41457;DHT22;27197;51.752;5.220;2023-07-09T04:23:34;25.60;69.30
41457;DHT22;27197;51.752;5.220;2023-07-09T04:26:03;25.50;69.40
41457;DHT22;27197;51.752;5.220;2023-07-09T04:28:32;25.50;69.70
41457;DHT22;27197;51.752;5.220;2023-07-09T04:31:00;25.50;69.80
41457;DHT22;27197;51.752;5.220;2023-07-09T04:33:29;25.60;69.30
41457;DHT22;27197;51.752;5.220;2023-07-09T04:35:57;25.70;69.40
41457;DHT22;27197;51.752;5.220;2023-07-09T04:38:25;25.70;69.50
41457;DHT22;27197;51.752;5.220;2023-07-09T04:40:52;25.70;69.30
41457;DHT22;27197;51.752;5.220;2023-07-09T04:43:20;25.70;69.60
41457;DHT22;27197;51.752;5.220;2023-07-09T04:45:48;25.60;69.80
41457;DHT22;27197;51.752;5.220;2023-07-09T04:48:17;25.60;70.10
41457;DHT22;27197;51.752;5.220;2023-07-09T04:50:45;25.60;70.50
41457;DHT22;27197;51.752;5.220;2023-07-09T04:53:14;25.60;70.70
41457;DHT22;27197;51.752;5.220;2023-07-09T04:55:41;25.60;70.00
41457;DHT22;27197;51.752;5.220;2023-07-09T04:58:09;25.60;71.00
41457;DHT22;27197;51.752;5.220;2023-07-09T05:00:38;25.60;71.10
41457;DHT22;27197;51.752;5.220;2023-07-09T05:03:07;25.60;71.00
41457;DHT22;27197;51.752;5.220;2023-07-09T05:05:35;25.60;70.60
41457;DHT22;27197;51.752;5.220;2023-07-09T05:08:02;25.60;71.30
41457;DHT22;27197;51.752;5.220;2023-07-09T05:10:30;25.60;71.20
41457;DHT22;27197;51.752;5.220;2023-07-09T05:12:58;25.60;71.80
41457;DHT22;27197;51.752;5.220;2023-07-09T05:15:25;25.60;71.10
41457;DHT22;27197;51.752;5.220;2023-07-09T05:17:54;25.60;70.60
41457;DHT22;27197;51.752;5.220;2023-07-09T05:20:24;25.70;70.40
41457;DHT22;27197;51.752;5.220;2023-07-09T05:22:51;25.70;70.70
41457;DHT22;27197;51.752;5.220;2023-07-09T05:25:23;25.70;70.70
41457;DHT22;27197;51.752;5.220;2023-07-09T05:27:48;25.70;70.50
41457;DHT22;27197;51.752;5.220;2023-07-09T05:30:16;25.70;70.00
41457;DHT22;27197;51.752;5.220;2023-07-09T05:32:43;25.70;69.90
41457;DHT22;27197;51.752;5.220;2023-07-09T05:35:11;25.70;70.30
41457;DHT22;27197;51.752;5.220;2023-07-09T05:37:38;25.60;70.00
41457;DHT22;27197;51.752;5.220;2023-07-09T05:40:06;25.60;69.50
41457;DHT22;27197;51.752;5.220;2023-07-09T05:42:35;25.60;69.80
41457;DHT22;27197;51.752;5.220;2023-07-09T05:45:02;25.70;69.60
41457;DHT22;27197;51.752;5.220;2023-07-09T05:47:30;25.60;69.50
41457;DHT22;27197;51.752;5.220;2023-07-09T05:49:57;25.70;70.00
41457;DHT22;27197;51.752;5.220;2023-07-09T05:52:25;25.60;69.20
41457;DHT22;27197;51.752;5.220;2023-07-09T05:54:54;25.60;68.50
41457;DHT22;27197;51.752;5.220;2023-07-09T05:57:22;25.70;68.30
41457;DHT22;27197;51.752;5.220;2023-07-09T05:59:50;25.70;68.70
41457;DHT22;27197;51.752;5.220;2023-07-09T06:02:23;25.60;69.20
41457;DHT22;27197;51.752;5.220;2023-07-09T06:04:53;25.60;70.00
41457;DHT22;27197;51.752;5.220;2023-07-09T06:07:17;25.60;70.30
41457;DHT22;27197;51.752;5.220;2023-07-09T06:09:48;25.60;68.50
41457;DHT22;27197;51.752;5.220;2023-07-09T06:12:15;25.60;69.10
41457;DHT22;27197;51.752;5.220;2023-07-09T06:14:45;25.70;69.80
41457;DHT22;27197;51.752;5.220;2023-07-09T06:17:13;25.70;68.80
41457;DHT22;27197;51.752;5.220;2023-07-09T06:19:40;25.80;67.40
41457;DHT22;27197;51.752;5.220;2023-07-09T06:22:08;25.80;68.80
41457;DHT22;27197;51.752;5.220;2023-07-09T06:24:36;25.80;68.70
41457;DHT22;27197;51.752;5.220;2023-07-09T06:27:03;25.80;68.80
41457;DHT22;27197;51.752;5.220;2023-07-09T06:29:31;25.80;68.00
41457;DHT22;27197;51.752;5.220;2023-07-09T06:32:00;25.80;69.20
41457;DHT22;27197;51.752;5.220;2023-07-09T06:34:27;25.90;69.30
41457;DHT22;27197;51.752;5.220;2023-07-09T06:36:55;25.80;69.80
41457;DHT22;27197;51.752;5.220;2023-07-09T06:39:23;25.90;68.20
41457;DHT22;27197;51.752;5.220;2023-07-09T06:41:50;25.90;70.00
41457;DHT22;27197;51.752;5.220;2023-07-09T06:44:18;25.90;69.40
41457;DHT22;27197;51.752;5.220;2023-07-09T06:46:46;26.00;70.00
41457;DHT22;27197;51.752;5.220;2023-07-09T06:49:14;26.00;69.30
41457;DHT22;27197;51.752;5.220;2023-07-09T06:51:42;26.00;69.90
41457;DHT22;27197;51.752;5.220;2023-07-09T06:54:11;26.00;69.60
41457;DHT22;27197;51.752;5.220;2023-07-09T06:56:38;26.00;70.00
41457;DHT22;27197;51.752;5.220;2023-07-09T06:59:06;26.10;69.30
41457;DHT22;27197;51.752;5.220;2023-07-09T07:01:33;26.10;69.20
41457;DHT22;27197;51.752;5.220;2023-07-09T07:04:01;26.10;69.40
41457;DHT22;27197;51.752;5.220;2023-07-09T07:06:28;26.10;68.70
41457;DHT22;27197;51.752;5.220;2023-07-09T07:08:57;26.10;68.70
41457;DHT22;27197;51.752;5.220;2023-07-09T07:11:25;26.10;69.80
41457;DHT22;27197;51.752;5.220;2023-07-09T07:13:54;26.10;70.30
41457;DHT22;27197;51.752;5.220;2023-07-09T07:16:21;26.10;70.00
41457;DHT22;27197;51.752;5.220;2023-07-09T07:18:49;26.20;70.40
41457;DHT22;27197;51.752;5.220;2023-07-09T07:21:16;26.10;69.00
41457;DHT22;27197;51.752;5.220;2023-07-09T07:23:44;26.20;69.70
41457;DHT22;27197;51.752;5.220;2023-07-09T07:26:11;26.20;68.60
41457;DHT22;27197;51.752;5.220;2023-07-09T07:28:39;26.20;68.10
41457;DHT22;27197;51.752;5.220;2023-07-09T07:31:08;26.20;70.10
41457;DHT22;27197;51.752;5.220;2023-07-09T07:33:39;26.20;68.90
41457;DHT22;27197;51.752;5.220;2023-07-09T07:36:08;26.20;70.20
41457;DHT22;27197;51.752;5.220;2023-07-09T07:38:41;26.30;68.10
41457;DHT22;27197;51.752;5.220;2023-07-09T07:41:06;26.30;67.80
41457;DHT22;27197;51.752;5.220;2023-07-09T07:43:34;26.20;67.60
41457;DHT22;27197;51.752;5.220;2023-07-09T07:46:06;26.20;67.40
41457;DHT22;27197;51.752;5.220;2023-07-09T07:48:34;26.30;68.10
41457;DHT22;27197;51.752;5.220;2023-07-09T07:51:03;26.20;69.20
41457;DHT22;27197;51.752;5.220;2023-07-09T07:53:31;26.30;68.70
41457;DHT22;27197;51.752;5.220;2023-07-09T07:55:59;26.30;68.40
41457;DHT22;27197;51.752;5.220;2023-07-09T07:58:28;26.40;68.20
41457;DHT22;27197;51.752;5.220;2023-07-09T08:00:56;26.30;67.40
41457;DHT22;27197;51.752;5.220;2023-07-09T08:03:23;26.40;68.20
41457;DHT22;27197;51.752;5.220;2023-07-09T08:05:51;26.40;67.80
41457;DHT22;27197;51.752;5.220;2023-07-09T08:08:20;26.40;68.00
41457;DHT22;27197;51.752;5.220;2023-07-09T08:10:49;26.40;67.40
41457;DHT22;27197;51.752;5.220;2023-07-09T08:13:18;26.40;67.10
41457;DHT22;27197;51.752;5.220;2023-07-09T08:15:46;26.40;67.20
41457;DHT22;27197;51.752;5.220;2023-07-09T08:18:14;26.40;67.50
41457;DHT22;27197;51.752;5.220;2023-07-09T08:20:43;26.40;67.10
41457;DHT22;27197;51.752;5.220;2023-07-09T08:23:11;26.40;67.40
41457;DHT22;27197;51.752;5.220;2023-07-09T08:25:38;26.40;67.20
41457;DHT22;27197;51.752;5.220;2023-07-09T08:28:06;26.40;67.20
41457;DHT22;27197;51.752;5.220;2023-07-09T08:30:34;26.40;67.90
41457;DHT22;27197;51.752;5.220;2023-07-09T08:33:02;26.40;68.10
41457;DHT22;27197;51.752;5.220;2023-07-09T08:35:29;26.40;67.80
41457;DHT22;27197;51.752;5.220;2023-07-09T08:37:58;26.50;67.30
41457;DHT22;27197;51.752;5.220;2023-07-09T08:40:26;26.40;67.20
41457;DHT22;27197;51.752;5.220;2023-07-09T08:42:53;26.40;66.70
41457;DHT22;27197;51.752;5.220;2023-07-09T08:46:10;26.50;66.90
41457;DHT22;27197;51.752;5.220;2023-07-09T08:47:59;26.50;67.10
41457;DHT22;27197;51.752;5.220;2023-07-09T08:50:51;26.50;67.10
41457;DHT22;27197;51.752;5.220;2023-07-09T08:52:57;26.50;66.70
41457;DHT22;27197;51.752;5.220;2023-07-09T08:55:30;26.50;67.30
41457;DHT22;27197;51.752;5.220;2023-07-09T08:58:04;26.50;67.20
41457;DHT22;27197;51.752;5.220;2023-07-09T09:00:53;26.50;67.10
41457;DHT22;27197;51.752;5.220;2023-07-09T09:03:41;26.50;66.70
41457;DHT22;27197;51.752;5.220;2023-07-09T09:06:14;26.50;66.80
41457;DHT22;27197;51.752;5.220;2023-07-09T09:08:53;26.50;66.70
41457;DHT22;27197;51.752;5.220;2023-07-09T09:14:01;26.60;67.50
41457;DHT22;27197;51.752;5.220;2023-07-09T09:16:31;26.60;67.00
41457;DHT22;27197;51.752;5.220;2023-07-09T09:19:05;26.60;66.70
41457;DHT22;27197;51.752;5.220;2023-07-09T09:21:36;26.60;67.50
41457;DHT22;27197;51.752;5.220;2023-07-09T09:24:16;26.60;67.10
41457;DHT22;27197;51.752;5.220;2023-07-09T09:26:44;26.60;66.60
41457;DHT22;27197;51.752;5.220;2023-07-09T09:29:14;26.70;67.60
41457;DHT22;27197;51.752;5.220;2023-07-09T09:31:45;26.70;67.30
41457;DHT22;27197;51.752;5.220;2023-07-09T09:34:23;26.70;66.90
41457;DHT22;27197;51.752;5.220;2023-07-09T09:36:50;26.70;66.70
41457;DHT22;27197;51.752;5.220;2023-07-09T09:39:18;26.70;66.50
41457;DHT22;27197;51.752;5.220;2023-07-09T09:41:47;26.70;66.60
41457;DHT22;27197;51.752;5.220;2023-07-09T09:44:19;26.70;66.80
41457;DHT22;27197;51.752;5.220;2023-07-09T09:46:49;26.70;67.50
41457;DHT22;27197;51.752;5.220;2023-07-09T09:49:18;26.80;67.70
41457;DHT22;27197;51.752;5.220;2023-07-09T09:51:47;26.80;67.00
41457;DHT22;27197;51.752;5.220;2023-07-09T09:54:21;26.80;66.80
41457;DHT22;27197;51.752;5.220;2023-07-09T09:56:49;26.80;67.00
41457;DHT22;27197;51.752;5.220;2023-07-09T09:59:27;26.80;66.80
41457;DHT22;27197;51.752;5.220;2023-07-09T10:01:58;26.70;67.60
41457;DHT22;27197;51.752;5.220;2023-07-09T10:04:27;26.80;66.80
41457;DHT22;27197;51.752;5.220;2023-07-09T10:06:57;26.80;67.20
41457;DHT22;27197;51.752;5.220;2023-07-09T11:22:35;26.10;59.00
41457;DHT22;27197;51.752;5.220;2023-07-09T11:25:14;26.10;63.10
41457;DHT22;27197;51.752;5.220;2023-07-09T11:28:02;26.20;57.70
41457;DHT22;27197;51.752;5.220;2023-07-09T11:30:29;26.30;65.20
41457;DHT22;27197;51.752;5.220;2023-07-09T11:32:59;26.20;56.70
41457;DHT22;27197;51.752;5.220;2023-07-09T11:35:29;26.10;57.40
